Etusivu
METAR-TAF:

METAR-TAF

Lentoasemat :

Sotilaslentoasema

Hachinohe, Japani

Leveyspiiri: 40-33N, Pituuspiiri: 141-28E, korkeus merenpinnasta: 46 m

Tämänhetkinen sää

Tämä raportti tehtiin 6 tuntia ja 31 minuuttia sitten, kello 03.51 UTC
Tuuli 11 kn kaakosta
Lämpötila 5°C
Kosteus 87%
Ilmanpaine 1000 hPa
Näkyvyys 10 km tai enemmän
Muutamia pilviä 600 ft:n korkeudessa
Hajanaisia pilviä 1000 ft:n korkeudessa
Hajonneita pilviä 2000 ft:n korkeudessa

METAR: RJSH 170351Z 14011KT 9999 FEW006 SCT010 BKN020 05/03 Q1000 RMK 1ST006 4ST010 7SC020 A2954

Aika: 19:22 (10:22 UTC)


TAF: puuttuu

Säähavainnot ja -ennusteet yli 4000 lentoasemalta (METAR- ja TAF-raportit).

Käytössä olevat sääasemat on merkitty karttaan keltaisilla ja punaisilla pisteillä.

Aseta hiiri pisteen päälle nähdäksesi sääaseman nimen.

Klikkaa sitten nähdäksesi säähavainnot ja -ennusteet.

Kartan vaihtaminen: klikkaa mustalla rastilla varustettuja vihreitä pisteitä, niin voit zoomata sisään; viivalla varustettua vihreää pistettä, niin voit zoomata ulos tai vihreitä nuolia, niin pääset viereisille kartoille.


METAR-TAF: